createdAt,value
2018-12-24T00:02:53.961Z,10.97
2018-12-24T00:05:35.585Z,6.83
2018-12-24T00:08:16.541Z,6.60
2018-12-24T00:10:56.111Z,10.13
2018-12-24T00:19:04.439Z,7.13
2018-12-24T00:22:13.439Z,7.27
2018-12-24T00:25:03.961Z,6.40
2018-12-24T00:33:30.682Z,10.83
2018-12-24T00:36:00.937Z,8.27
2018-12-24T00:38:51.584Z,7.00
2018-12-24T00:41:21.767Z,8.37
2018-12-24T00:46:48.035Z,8.83
2018-12-24T00:49:57.273Z,6.60
2018-12-24T00:52:29.297Z,13.90
2018-12-24T01:06:21.071Z,7.83
2018-12-24T01:09:10.065Z,5.00
2018-12-24T01:12:24.559Z,7.30
2018-12-24T01:18:08.209Z,5.30
2018-12-24T01:20:57.279Z,4.97
2018-12-24T01:23:38.745Z,7.50
2018-12-24T01:26:27.788Z,6.87
2018-12-24T01:28:58.187Z,9.60
2018-12-24T01:32:07.345Z,7.87
2018-12-24T01:34:56.380Z,10.83
2018-12-24T01:40:12.681Z,4.40
2018-12-24T01:43:01.886Z,4.80
2018-12-24T01:45:32.216Z,5.90
2018-12-24T01:48:02.606Z,4.70
2018-12-24T01:50:33.371Z,6.70
2018-12-24T01:53:42.573Z,4.83
2018-12-24T01:59:46.061Z,4.67
2018-12-24T02:05:26.400Z,4.60
2018-12-24T02:07:56.673Z,5.00
2018-12-24T02:14:00.180Z,5.73
2018-12-24T02:22:33.612Z,5.33
2018-12-24T02:28:18.822Z,7.17
2018-12-24T02:42:34.165Z,6.90
2018-12-24T02:45:24.633Z,7.03
2018-12-24T02:48:08.582Z,9.03
2018-12-24T02:50:38.992Z,7.90
2018-12-24T02:53:09.872Z,9.63
2018-12-24T02:56:19.053Z,6.37
2018-12-24T02:59:08.098Z,7.17
2018-12-24T03:01:49.906Z,6.63
2018-12-24T03:04:40.568Z,9.30
2018-12-24T03:07:31.070Z,5.92
2018-12-24T03:13:29.758Z,5.07
2018-12-24T03:16:10.484Z,9.03
2018-12-24T03:18:59.655Z,6.50
2018-12-24T03:21:50.111Z,9.10
2018-12-24T03:24:40.585Z,6.87
2018-12-24T03:27:10.775Z,8.00
2018-12-24T03:32:49.618Z,9.57
2018-12-24T03:35:31.057Z,5.97
2018-12-24T03:41:03.985Z,6.97
2018-12-24T03:43:54.517Z,7.83
2018-12-24T03:49:35.153Z,5.80
2018-12-24T03:57:25.386Z,6.30
2018-12-24T04:00:16.098Z,4.33
2018-12-24T04:03:25.304Z,5.33
2018-12-24T04:09:10.527Z,5.10
2018-12-24T04:12:19.887Z,6.87
2018-12-24T04:15:09.258Z,4.93
2018-12-24T04:21:05.238Z,5.27
2018-12-24T04:23:46.139Z,6.93
2018-12-24T04:26:27.511Z,7.37
2018-12-24T04:29:09.323Z,8.47
2018-12-24T04:31:51.058Z,12.70
2018-12-24T04:34:32.768Z,7.80
2018-12-24T04:37:13.645Z,8.43
2018-12-24T04:39:54.569Z,8.83
2018-12-24T04:42:35.462Z,7.30
2018-12-24T04:45:24.663Z,7.23
2018-12-24T04:47:55.143Z,7.87
2018-12-24T04:51:04.279Z,8.20
2018-12-24T04:53:34.770Z,8.70
2018-12-24T04:56:05.101Z,8.40
2018-12-24T04:58:35.260Z,10.80
2018-12-24T05:01:24.426Z,7.10
2018-12-24T05:04:13.568Z,6.37
2018-12-24T05:06:44.072Z,6.73
2018-12-24T05:09:14.368Z,6.30
2018-12-24T05:12:04.200Z,8.07
2018-12-24T05:14:34.565Z,7.30
2018-12-24T05:17:04.845Z,12.47
2018-12-24T05:19:35.299Z,11.47
2018-12-24T05:22:24.470Z,10.63
2018-12-24T05:24:54.713Z,10.87
2018-12-24T05:27:25.009Z,9.13
2018-12-24T05:33:05.366Z,12.63
2018-12-24T05:38:35.938Z,35.73
2018-12-24T05:41:21.619Z,31.13
2018-12-24T05:44:03.440Z,13.53
2018-12-24T05:52:20.513Z,17.37
2018-12-24T05:58:19.214Z,21.47
2018-12-24T06:01:45.608Z,19.47
2018-12-24T06:04:36.367Z,19.33
2018-12-24T06:10:21.751Z,14.30
2018-12-24T06:13:10.929Z,22.87
2018-12-24T06:18:35.498Z,19.03
2018-12-24T06:21:05.941Z,16.30
2018-12-24T06:23:36.247Z,11.17
2018-12-24T06:26:06.713Z,15.80
2018-12-24T06:31:54.263Z,18.60
2018-12-24T06:40:19.784Z,13.13
2018-12-24T06:43:08.799Z,16.93
2018-12-24T06:48:51.916Z,24.43
2018-12-24T06:54:16.735Z,23.00
2018-12-24T06:56:46.966Z,19.40
2018-12-24T06:59:17.292Z,13.63
2018-12-24T07:02:05.509Z,14.43
2018-12-24T07:07:25.339Z,18.03
2018-12-24T07:10:14.451Z,27.23
2018-12-24T07:13:03.578Z,21.43
2018-12-24T07:15:33.846Z,31.27
2018-12-24T07:18:04.245Z,23.27
2018-12-24T07:21:12.021Z,17.20
2018-12-24T07:23:42.119Z,17.30
2018-12-24T07:26:12.882Z,20.63
2018-12-24T07:29:20.680Z,12.23
2018-12-24T07:31:51.061Z,8.73
2018-12-24T07:34:40.163Z,13.30
2018-12-24T07:40:00.801Z,7.93
2018-12-24T07:42:31.120Z,12.80
2018-12-24T07:45:01.426Z,10.07
2018-12-24T07:47:31.667Z,9.10
2018-12-24T07:50:13.235Z,8.70
2018-12-24T07:52:43.826Z,9.40
2018-12-24T07:55:14.119Z,5.90
2018-12-24T07:58:03.227Z,20.20
2018-12-24T08:00:34.106Z,6.70
2018-12-24T08:03:23.215Z,9.33
2018-12-24T08:05:54.004Z,3.80
2018-12-24T08:08:43.020Z,5.13
2018-12-24T08:11:32.077Z,5.20
2018-12-24T08:14:02.465Z,15.43
2018-12-24T08:16:32.817Z,5.30
2018-12-24T08:19:22.104Z,25.33
2018-12-24T08:22:11.189Z,9.23
2018-12-24T08:24:41.594Z,19.00
2018-12-24T08:27:30.718Z,20.97
2018-12-24T08:30:11.520Z,22.70
2018-12-24T08:32:41.826Z,13.30
2018-12-24T08:35:32.482Z,14.27
2018-12-24T08:38:22.547Z,6.80
2018-12-24T08:40:52.768Z,11.00
2018-12-24T08:43:23.125Z,11.47
2018-12-24T08:45:53.408Z,7.60
2018-12-24T08:48:23.759Z,8.77
2018-12-24T08:53:52.619Z,7.83
2018-12-24T08:56:22.925Z,7.17
2018-12-24T08:58:53.206Z,7.53
2018-12-24T09:01:23.680Z,8.17
2018-12-24T09:03:54.533Z,10.10
2018-12-24T09:06:24.853Z,8.70
2018-12-24T09:08:55.933Z,12.93
2018-12-24T09:11:26.249Z,3.30
2018-12-24T09:13:56.576Z,3.77
2018-12-24T09:16:26.988Z,9.87
2018-12-24T09:18:57.297Z,18.70
2018-12-24T09:21:27.569Z,4.10
2018-12-24T09:23:58.443Z,5.20
2018-12-24T09:26:28.717Z,9.53
2018-12-24T09:28:58.979Z,10.33
2018-12-24T09:31:29.402Z,5.63
2018-12-24T09:33:59.743Z,8.07
2018-12-24T09:39:25.208Z,6.87
2018-12-24T09:41:55.537Z,5.53
2018-12-24T09:44:44.591Z,4.90
2018-12-24T09:49:59.261Z,3.00
2018-12-24T09:58:20.103Z,5.83
2018-12-24T10:03:42.601Z,6.53
2018-12-24T10:06:15.970Z,8.13
2018-12-24T10:08:46.705Z,12.83
2018-12-24T10:11:16.974Z,9.80
2018-12-24T10:16:41.704Z,6.27
2018-12-24T10:19:12.045Z,7.20
2018-12-24T10:22:01.315Z,4.60
2018-12-24T10:24:31.843Z,8.23
2018-12-24T10:27:02.005Z,9.37
2018-12-24T10:29:32.222Z,6.17
2018-12-24T10:32:02.528Z,7.10
2018-12-24T10:34:51.681Z,7.03
2018-12-24T10:37:22.099Z,10.33
2018-12-24T10:39:52.373Z,10.20
2018-12-24T10:42:41.629Z,12.03
2018-12-24T10:45:16.483Z,9.13
2018-12-24T10:47:44.006Z,10.20
2018-12-24T10:50:14.453Z,10.10
2018-12-24T10:52:55.948Z,9.33
2018-12-24T10:55:26.378Z,11.27
2018-12-24T10:57:56.623Z,10.83
2018-12-24T11:00:26.918Z,14.63
2018-12-24T11:02:57.343Z,16.90
2018-12-24T11:05:46.825Z,15.57
2018-12-24T11:08:35.863Z,18.10
2018-12-24T11:11:06.215Z,12.37
2018-12-24T11:13:36.468Z,12.03
2018-12-24T11:16:25.564Z,11.20
2018-12-24T11:18:55.939Z,11.50
2018-12-24T11:21:26.491Z,15.07
2018-12-24T11:23:56.849Z,22.50
2018-12-24T11:26:27.088Z,25.53
2018-12-24T11:28:57.526Z,16.67
2018-12-24T11:31:27.892Z,16.93
2018-12-24T11:33:58.633Z,17.17
2018-12-24T11:36:28.987Z,15.37
2018-12-24T11:38:59.362Z,12.87
2018-12-24T11:41:29.730Z,12.93
2018-12-24T11:44:00.009Z,7.70
2018-12-24T11:46:30.368Z,12.13
2018-12-24T11:49:00.615Z,9.30
2018-12-24T11:51:30.883Z,11.10
2018-12-24T11:54:01.314Z,11.10
2018-12-24T11:56:31.614Z,10.03
2018-12-24T11:59:02.381Z,14.13
2018-12-24T12:01:32.771Z,9.00
2018-12-24T12:04:03.042Z,10.23
2018-12-24T12:06:33.433Z,12.90
2018-12-24T12:11:42.359Z,13.00
2018-12-24T12:14:12.627Z,11.20
2018-12-24T12:16:42.917Z,12.30
2018-12-24T12:22:25.387Z,10.90
2018-12-24T12:24:55.656Z,8.53
2018-12-24T12:27:25.997Z,11.53
2018-12-24T12:29:56.308Z,9.90
2018-12-24T12:35:16.352Z,8.63
2018-12-24T12:37:46.634Z,12.10
2018-12-24T12:40:17.108Z,12.67
2018-12-24T12:42:47.532Z,11.50
2018-12-24T12:45:17.965Z,15.30
2018-12-24T12:47:48.246Z,13.47
2018-12-24T12:50:18.542Z,11.60
2018-12-24T12:52:48.846Z,14.13
2018-12-24T12:55:30.912Z,14.40
2018-12-24T12:58:12.276Z,14.10
2018-12-24T13:00:43.175Z,12.80
2018-12-24T13:03:13.432Z,11.80
2018-12-24T13:05:43.731Z,15.80
2018-12-24T13:08:14.172Z,12.03
2018-12-24T13:10:44.517Z,16.00
2018-12-24T13:13:14.895Z,12.93
2018-12-24T13:16:04.025Z,12.77
2018-12-24T13:18:34.394Z,13.17
2018-12-24T13:21:04.719Z,11.17
2018-12-24T13:23:35.091Z,12.07
2018-12-24T13:26:05.415Z,12.67
2018-12-24T13:28:35.649Z,12.13
2018-12-24T13:31:06.093Z,18.83
2018-12-24T13:33:36.506Z,17.63
2018-12-24T13:41:38.089Z,20.80
2018-12-24T13:44:08.513Z,19.10
2018-12-24T13:46:38.781Z,20.20
2018-12-24T13:49:08.968Z,24.43
2018-12-24T13:51:39.423Z,15.13
2018-12-24T13:54:09.745Z,17.50
2018-12-24T13:59:35.710Z,13.00
2018-12-24T14:02:06.012Z,17.37
2018-12-24T14:04:36.281Z,20.13
2018-12-24T14:10:21.854Z,15.27
2018-12-24T14:12:53.825Z,15.70
2018-12-24T14:15:24.717Z,11.70
2018-12-24T14:17:55.150Z,11.90
2018-12-24T14:20:25.454Z,15.60
2018-12-24T14:22:55.717Z,15.10
2018-12-24T14:25:26.122Z,11.30
2018-12-24T14:27:56.475Z,12.20
2018-12-24T14:30:26.741Z,12.13
2018-12-24T14:32:57.132Z,12.43
2018-12-24T14:35:27.302Z,11.80
2018-12-24T14:37:57.566Z,10.77
2018-12-24T14:40:46.810Z,12.70
2018-12-24T14:43:17.216Z,11.80
2018-12-24T14:45:47.570Z,11.73
2018-12-24T14:48:17.980Z,12.27
2018-12-24T14:50:48.211Z,10.67
2018-12-24T14:53:18.544Z,9.87
2018-12-24T14:55:48.978Z,8.90
2018-12-24T14:58:19.288Z,8.60
2018-12-24T15:00:49.595Z,10.30
2018-12-24T15:03:19.980Z,16.40
2018-12-24T15:05:50.405Z,11.73
2018-12-24T15:08:20.653Z,9.63
2018-12-24T15:10:50.995Z,11.53
2018-12-24T15:13:21.430Z,12.37
2018-12-24T15:15:51.692Z,13.27
2018-12-24T15:18:22.114Z,12.90
2018-12-24T15:20:52.423Z,13.00
2018-12-24T15:23:22.783Z,15.63
2018-12-24T15:25:53.181Z,20.60
2018-12-24T15:28:23.447Z,17.53
2018-12-24T15:30:53.832Z,20.63
2018-12-24T15:33:24.135Z,17.67
2018-12-24T15:35:54.422Z,15.80
2018-12-24T15:38:24.868Z,16.60
2018-12-24T15:40:55.209Z,19.47
2018-12-24T15:43:25.498Z,18.80
2018-12-24T15:45:55.794Z,15.63
2018-12-24T15:48:26.344Z,12.97
2018-12-24T15:51:15.472Z,19.87
2018-12-24T15:53:46.302Z,25.60
2018-12-24T15:56:17.297Z,26.13
2018-12-24T15:58:58.512Z,27.83
2018-12-24T16:01:28.874Z,18.03
2018-12-24T16:03:59.231Z,38.67
2018-12-24T16:09:25.916Z,16.40
2018-12-24T16:14:45.524Z,14.73
2018-12-24T16:17:15.907Z,12.93
2018-12-24T16:19:46.220Z,13.83
2018-12-24T16:22:16.602Z,14.37
2018-12-24T16:24:46.939Z,13.60
2018-12-24T16:27:17.254Z,14.10
2018-12-24T16:29:47.690Z,13.10
2018-12-24T16:32:17.978Z,13.80
2018-12-24T16:34:48.331Z,12.70
2018-12-24T16:37:18.741Z,14.03
2018-12-24T16:40:07.919Z,16.50
2018-12-24T16:42:38.435Z,13.00
2018-12-24T16:45:08.680Z,11.17
2018-12-24T16:47:39.003Z,15.80
2018-12-24T16:50:09.336Z,13.27
2018-12-24T16:52:39.625Z,17.93
2018-12-24T16:55:09.948Z,13.27
2018-12-24T16:57:41.330Z,19.37
2018-12-24T17:00:24.117Z,20.40
2018-12-24T17:02:54.510Z,18.50
2018-12-24T17:05:25.059Z,17.80
2018-12-24T17:07:55.357Z,12.27
2018-12-24T17:10:25.775Z,17.33
2018-12-24T17:13:14.841Z,15.13
2018-12-24T17:15:45.206Z,17.03
2018-12-24T17:18:15.531Z,16.27
2018-12-24T17:20:45.817Z,12.77
2018-12-24T17:23:16.227Z,13.93
2018-12-24T17:25:46.541Z,14.40
2018-12-24T17:28:36.011Z,16.13
2018-12-24T17:34:07.132Z,21.00
2018-12-24T17:36:37.972Z,22.50
2018-12-24T17:42:09.592Z,17.33
2018-12-24T17:44:39.864Z,19.70
2018-12-24T17:47:16.215Z,17.43
2018-12-24T17:49:42.269Z,24.17
2018-12-24T17:52:12.593Z,18.53
2018-12-24T17:55:01.764Z,17.57
2018-12-24T17:57:32.476Z,19.73
2018-12-24T18:00:02.830Z,14.10
2018-12-24T18:02:33.161Z,17.00
2018-12-24T18:05:03.522Z,16.43
2018-12-24T18:07:33.801Z,14.30
2018-12-24T18:10:04.275Z,15.63
2018-12-24T18:12:34.633Z,13.00
2018-12-24T18:15:04.943Z,11.73
2018-12-24T18:17:35.433Z,14.10
2018-12-24T18:20:25.826Z,8.63
2018-12-24T18:22:56.420Z,8.77
2018-12-24T18:25:27.165Z,9.10
2018-12-24T18:27:57.431Z,9.43
2018-12-24T18:30:27.754Z,13.10
2018-12-24T18:35:53.269Z,12.17
2018-12-24T18:38:23.539Z,6.93
2018-12-24T18:40:53.902Z,6.40
2018-12-24T18:43:24.341Z,4.43
2018-12-24T18:45:54.653Z,3.03
2018-12-24T18:48:24.964Z,3.70
2018-12-24T18:50:55.336Z,4.07
2018-12-24T18:53:26.044Z,8.03
2018-12-24T18:55:56.333Z,3.37
2018-12-24T18:58:45.398Z,4.47
2018-12-24T19:04:11.452Z,4.43
2018-12-24T19:06:42.249Z,3.40
2018-12-24T19:09:12.562Z,3.87
2018-12-24T19:11:42.935Z,3.87
2018-12-24T19:14:13.401Z,3.20
2018-12-24T19:16:43.703Z,3.40
2018-12-24T19:19:14.041Z,3.90
2018-12-24T19:21:44.383Z,3.03
2018-12-24T19:24:14.638Z,2.93
2018-12-24T19:26:45.173Z,3.60
2018-12-24T19:29:15.910Z,3.80
2018-12-24T19:31:46.216Z,8.20
2018-12-24T19:34:16.529Z,5.67
2018-12-24T19:36:46.838Z,4.17
2018-12-24T19:39:35.925Z,3.87
2018-12-24T19:42:06.265Z,2.43
2018-12-24T19:44:36.541Z,2.77
2018-12-24T19:47:06.887Z,4.23
2018-12-24T19:52:50.450Z,2.80
2018-12-24T19:55:20.736Z,2.47
2018-12-24T19:58:09.835Z,3.73
2018-12-24T20:00:40.133Z,2.10
2018-12-24T20:03:10.467Z,2.27
2018-12-24T20:05:40.951Z,2.67
2018-12-24T20:08:30.054Z,1.83
2018-12-24T20:11:11.544Z,2.07
2018-12-24T20:13:41.809Z,2.00
2018-12-24T20:16:12.133Z,2.93
2018-12-24T20:22:04.173Z,2.23
2018-12-24T20:24:53.414Z,2.43
2018-12-24T20:27:23.828Z,4.03
2018-12-24T20:29:54.116Z,2.30
2018-12-24T20:32:24.431Z,2.63
2018-12-24T20:34:54.808Z,2.53
2018-12-24T20:37:25.135Z,2.40
2018-12-24T20:39:55.388Z,2.60
2018-12-24T20:42:44.495Z,1.60
2018-12-24T20:48:22.802Z,2.33
2018-12-24T20:51:16.279Z,2.50
2018-12-24T20:53:44.980Z,2.20
2018-12-24T20:56:34.092Z,3.27
2018-12-24T20:59:04.498Z,2.33
2018-12-24T21:01:34.790Z,2.90
2018-12-24T21:04:15.889Z,2.77
2018-12-24T21:06:46.288Z,2.87
2018-12-24T21:09:16.853Z,2.77
2018-12-24T21:11:47.242Z,2.20
2018-12-24T21:19:59.789Z,3.83
2018-12-24T21:22:30.050Z,2.53
2018-12-24T21:25:00.360Z,6.13
2018-12-24T21:27:30.745Z,4.03
2018-12-24T21:32:50.756Z,9.45
2018-12-24T21:35:21.132Z,8.38
2018-12-24T21:37:51.400Z,5.65
2018-12-24T21:46:21.059Z,7.70
2018-12-24T21:48:51.428Z,5.28
2018-12-24T21:51:21.724Z,7.03
2018-12-24T21:54:11.279Z,4.25
2018-12-24T21:59:51.112Z,4.15
2018-12-24T22:02:21.398Z,3.20
2018-12-24T22:05:02.597Z,5.58
2018-12-24T22:07:44.255Z,5.33
2018-12-24T22:10:15.483Z,4.47
2018-12-24T22:12:45.859Z,3.65
2018-12-24T22:15:16.200Z,5.17
2018-12-24T22:17:46.569Z,4.10
2018-12-24T22:20:16.837Z,4.22
2018-12-24T22:22:54.047Z,5.03
2018-12-24T22:25:24.391Z,4.42
2018-12-24T22:28:13.607Z,3.77
2018-12-24T22:30:43.967Z,4.75
2018-12-24T22:33:14.281Z,4.35
2018-12-24T22:35:44.563Z,3.58
2018-12-24T22:38:14.894Z,5.15
2018-12-24T22:41:04.111Z,3.42
2018-12-24T22:43:34.434Z,4.08
2018-12-24T22:46:04.726Z,4.92
2018-12-24T22:54:10.590Z,5.22
2018-12-24T22:56:42.229Z,4.60
2018-12-24T23:01:59.904Z,3.62
2018-12-24T23:04:30.186Z,6.20
2018-12-24T23:12:47.052Z,4.58
2018-12-24T23:15:36.134Z,3.50
2018-12-24T23:21:02.547Z,4.65
2018-12-24T23:23:32.813Z,3.80
2018-12-24T23:26:03.034Z,6.17
2018-12-24T23:28:33.343Z,4.70
2018-12-24T23:31:03.714Z,7.25
2018-12-24T23:33:34.047Z,4.60
2018-12-24T23:36:04.432Z,4.12
2018-12-24T23:38:53.505Z,7.95
2018-12-24T23:41:23.932Z,8.65
2018-12-24T23:44:12.983Z,7.60
2018-12-24T23:47:02.113Z,4.33
2018-12-24T23:49:32.470Z,3.77
2018-12-24T23:52:02.812Z,5.55
2018-12-24T23:54:33.258Z,9.10
2018-12-24T23:59:54.696Z,7.50
